createdAt,value
2019-03-20T14:42:16.716Z,13.61
2019-03-20T14:43:29.016Z,13.65
2019-03-20T14:44:27.762Z,13.71
2019-03-20T14:44:51.765Z,13.68
2019-03-20T14:45:50.365Z,13.80
2019-03-20T14:46:50.225Z,13.66
2019-03-20T14:47:50.144Z,13.65
2019-03-20T14:48:50.059Z,13.65
2019-03-20T14:49:49.988Z,13.62
2019-03-20T14:50:49.969Z,13.59
2019-03-20T14:51:49.854Z,13.65
2019-03-20T14:52:49.812Z,13.48
2019-03-20T14:53:49.680Z,13.48
2019-03-20T14:54:49.652Z,13.48
2019-03-20T14:55:49.521Z,13.61
2019-03-20T14:56:49.445Z,13.66
2019-03-20T14:57:49.371Z,13.74
2019-03-20T14:58:49.344Z,13.68
2019-03-20T14:59:49.281Z,13.77
2019-03-20T15:00:49.207Z,13.99
2019-03-20T15:01:49.073Z,14.17
2019-03-20T15:02:49.000Z,14.27
2019-03-20T15:03:48.935Z,14.38
2019-03-20T15:04:48.838Z,14.36
2019-03-20T15:05:48.773Z,14.34
2019-03-20T15:06:48.694Z,14.59
2019-03-20T15:07:48.618Z,14.60
2019-03-20T15:08:48.533Z,14.61
2019-03-20T15:09:48.472Z,14.61
2019-03-20T15:10:48.455Z,14.57
2019-03-20T15:11:48.319Z,14.69
2019-03-20T15:12:48.238Z,14.85
2019-03-20T15:13:48.281Z,14.87
2019-03-20T15:14:48.085Z,14.90
2019-03-20T15:15:48.061Z,14.87
2019-03-20T15:16:47.937Z,14.90
2019-03-20T15:17:47.855Z,14.87
2019-03-20T15:18:47.783Z,14.88
2019-03-20T15:19:47.709Z,14.94
2019-03-20T15:20:47.634Z,14.90
2019-03-20T15:21:47.560Z,14.84
2019-03-20T15:22:47.481Z,14.83
2019-03-20T15:23:47.404Z,14.90
2019-03-20T15:24:47.375Z,14.84
2019-03-20T15:25:47.269Z,14.64
2019-03-20T15:26:47.182Z,14.60
2019-03-20T15:27:47.101Z,14.67
2019-03-20T15:28:47.028Z,14.57
2019-03-20T15:29:46.948Z,14.68
2019-03-20T15:30:46.875Z,14.61
2019-03-20T15:31:46.795Z,14.59
2019-03-20T15:32:46.720Z,14.47
2019-03-20T15:33:46.708Z,14.38
2019-03-20T15:34:46.622Z,14.39
2019-03-20T15:35:46.494Z,14.27
2019-03-20T15:36:46.415Z,14.29
2019-03-20T15:37:46.342Z,14.17
2019-03-20T15:38:46.344Z,14.17
2019-03-20T15:39:46.268Z,14.03
2019-03-20T15:40:55.711Z,13.78
2019-03-20T15:41:46.109Z,13.71
2019-03-20T15:42:45.979Z,13.65
2019-03-20T15:43:45.886Z,13.61
2019-03-20T15:44:45.831Z,13.70
2019-03-20T15:45:45.781Z,13.70
2019-03-20T15:46:45.671Z,13.63
2019-03-20T15:47:45.600Z,13.66
2019-03-20T15:48:45.548Z,13.76
2019-03-20T15:49:45.440Z,13.80
2019-03-20T15:50:45.362Z,13.77
2019-03-20T15:51:45.287Z,13.77
2019-03-20T15:52:45.264Z,13.77
2019-03-20T15:53:45.242Z,13.71
2019-03-20T15:54:45.068Z,13.59
2019-03-20T15:55:44.984Z,13.50
2019-03-20T15:56:44.966Z,13.40
2019-03-20T15:57:44.980Z,13.33
2019-03-20T15:58:44.757Z,13.33
2019-03-20T15:59:44.669Z,13.37
2019-03-20T16:00:44.659Z,13.43
2019-03-20T16:01:44.643Z,13.40
2019-03-20T16:02:44.493Z,13.44
2019-03-20T16:03:44.370Z,13.48
2019-03-20T16:04:44.309Z,13.52
2019-03-20T16:05:44.383Z,13.62
2019-03-20T16:06:44.138Z,13.65
2019-03-20T16:07:44.103Z,13.70
2019-03-20T16:08:43.991Z,13.73
2019-03-20T16:09:43.936Z,13.74
2019-03-20T16:10:43.839Z,13.74
2019-03-20T16:11:43.761Z,13.77
2019-03-20T16:12:43.695Z,13.78
2019-03-20T16:13:43.608Z,13.70
2019-03-20T16:14:43.536Z,13.76
2019-03-20T16:15:43.568Z,13.74
2019-03-20T16:16:43.402Z,13.62
2019-03-20T16:17:43.373Z,13.66
2019-03-20T16:18:43.348Z,13.59
2019-03-20T16:19:43.151Z,13.59
2019-03-20T16:20:43.118Z,13.58
2019-03-20T16:21:42.998Z,13.59
2019-03-20T16:22:42.947Z,13.50
2019-03-20T16:23:42.902Z,13.41
2019-03-20T16:24:42.776Z,13.27
2019-03-20T16:25:42.709Z,13.18
2019-03-20T16:26:42.694Z,13.17
2019-03-20T16:27:42.685Z,13.14
2019-03-20T16:28:42.531Z,13.10
2019-03-20T16:29:42.457Z,13.11
2019-03-20T16:30:42.453Z,13.02
2019-03-20T16:31:42.413Z,13.03
2019-03-20T16:32:42.234Z,13.06
2019-03-20T16:33:42.138Z,13.00
2019-03-20T16:34:42.020Z,13.09
2019-03-20T16:35:42.027Z,13.02
2019-03-20T16:36:41.854Z,13.07
2019-03-20T16:37:41.848Z,13.02
2019-03-20T16:38:41.765Z,12.94
2019-03-20T16:39:41.729Z,12.88
2019-03-20T16:40:41.625Z,12.84
2019-03-20T16:41:41.485Z,12.60
2019-03-20T16:42:41.555Z,12.51
2019-03-20T16:43:41.385Z,12.41
2019-03-20T16:44:41.309Z,12.27
2019-03-20T16:45:41.227Z,12.11
2019-03-20T16:46:41.254Z,11.94
2019-03-20T16:47:41.016Z,11.78
2019-03-20T16:48:41.047Z,11.64
2019-03-20T16:49:40.870Z,11.54
2019-03-20T16:50:40.892Z,11.47
2019-03-20T16:51:40.755Z,11.36
2019-03-20T16:52:40.656Z,11.17
2019-03-20T16:53:40.568Z,11.21
2019-03-20T16:54:40.489Z,11.10
2019-03-20T16:55:40.473Z,11.06
2019-03-20T16:56:40.378Z,11.08
2019-03-20T16:57:40.244Z,11.00
2019-03-20T16:58:40.320Z,11.02
2019-03-20T16:59:40.155Z,11.06
2019-03-20T17:00:40.019Z,10.92
2019-03-20T17:01:39.942Z,10.91
2019-03-20T17:02:39.864Z,10.77
2019-03-20T17:03:39.848Z,10.69
2019-03-20T17:04:39.746Z,10.65
2019-03-20T17:05:39.686Z,10.60
2019-03-20T17:06:39.557Z,10.51
2019-03-20T17:07:39.492Z,10.43
2019-03-20T17:08:39.396Z,10.40
2019-03-20T17:09:39.320Z,10.36
2019-03-20T17:10:39.268Z,10.25
2019-03-20T17:11:39.214Z,10.13
2019-03-20T17:12:39.177Z,10.10
2019-03-20T17:13:39.010Z,9.93
2019-03-20T17:14:39.005Z,9.93
2019-03-20T17:15:38.917Z,9.89
2019-03-20T17:16:42.611Z,9.85
2019-03-20T17:17:38.691Z,9.74
2019-03-20T17:18:38.620Z,9.71
2019-03-20T17:19:38.540Z,9.68
2019-03-20T17:20:38.561Z,9.61
2019-03-20T17:21:38.444Z,9.61
2019-03-20T17:22:41.966Z,9.61
2019-03-20T17:23:38.227Z,9.56
2019-03-20T17:24:38.171Z,9.52
2019-03-20T17:25:38.083Z,9.49
2019-03-20T17:26:38.004Z,9.38
2019-03-20T17:27:37.913Z,9.43
2019-03-20T17:28:37.844Z,9.37
2019-03-20T17:29:37.765Z,9.37
2019-03-20T17:30:37.677Z,9.29
2019-03-20T17:31:37.673Z,9.24
2019-03-20T17:32:37.587Z,9.28
2019-03-20T17:33:37.493Z,9.19
2019-03-20T17:34:37.370Z,9.09
2019-03-20T17:35:37.366Z,8.97
2019-03-20T17:36:37.212Z,8.93
2019-03-20T17:37:37.196Z,8.84
2019-03-20T17:38:37.066Z,8.69
2019-03-20T17:39:36.973Z,8.58
2019-03-20T17:40:36.897Z,8.40
2019-03-20T17:41:37.009Z,8.30
2019-03-20T17:42:36.835Z,8.24
2019-03-20T17:43:36.724Z,8.22
2019-03-20T17:44:36.833Z,8.25
2019-03-20T19:26:30.902Z,4.74
2019-03-20T19:27:30.011Z,4.74
2019-03-20T19:28:30.522Z,4.69
2019-03-20T19:29:59.695Z,4.65
2019-03-20T19:30:26.095Z,4.62
2019-03-20T19:31:25.934Z,4.61
2019-03-20T19:32:25.835Z,4.59
2019-03-20T19:42:19.395Z,4.10
2019-03-20T19:47:08.180Z,4.20
2019-03-20T19:48:59.067Z,4.20
2019-03-20T19:49:42.021Z,4.12
2019-03-20T19:50:41.987Z,4.15
2019-03-20T19:54:40.601Z,4.02
2019-03-20T20:11:45.359Z,3.65
2019-03-20T20:13:41.695Z,3.34
2019-03-20T20:14:41.539Z,3.37
2019-03-20T20:15:41.565Z,3.34
2019-03-20T22:22:44.961Z,1.65
2019-03-20T22:23:37.889Z,1.62
2019-03-20T22:24:37.813Z,1.58
2019-03-20T22:25:37.953Z,1.56
2019-03-20T22:29:51.783Z,1.65
2019-03-20T22:30:50.248Z,1.58
2019-03-20T22:31:43.955Z,1.66
2019-03-20T22:32:43.421Z,1.64
2019-03-20T23:22:42.250Z,0.69
2019-03-20T23:25:28.742Z,0.65
2019-03-20T23:26:28.558Z,0.71
2019-03-20T23:27:28.674Z,0.62
2019-03-20T23:29:51.950Z,0.68
2019-03-20T23:30:28.045Z,0.74
2019-03-20T23:31:28.097Z,0.69
2019-03-20T23:32:27.895Z,0.74
2019-03-20T23:33:27.853Z,0.75
2019-03-20T23:34:27.717Z,0.74
2019-03-20T23:35:27.705Z,0.79
2019-03-20T23:36:27.617Z,0.77
2019-03-20T23:37:27.421Z,0.77
2019-03-20T23:38:28.663Z,0.77
2019-03-20T23:39:27.325Z,0.68
2019-03-20T23:40:27.201Z,0.52
2019-03-20T23:41:27.179Z,0.36
2019-03-20T23:42:27.124Z,0.31
2019-03-20T23:43:26.976Z,0.14
2019-03-20T23:44:26.956Z,0.14
2019-03-20T23:45:26.769Z,0.11
2019-03-20T23:46:26.732Z,0.11
2019-03-20T23:47:26.591Z,0.22
2019-03-20T23:48:26.593Z,0.22
2019-03-20T23:49:26.424Z,0.28
2019-03-20T23:50:26.355Z,0.22
2019-03-20T23:51:26.330Z,0.36
2019-03-20T23:52:26.267Z,0.28
2019-03-20T23:53:26.253Z,0.42
2019-03-20T23:54:26.087Z,0.46
2019-03-20T23:55:26.073Z,0.40
2019-03-20T23:56:25.903Z,0.49
2019-03-20T23:57:25.862Z,0.56
2019-03-20T23:58:25.791Z,0.45
2019-03-20T23:59:25.685Z,0.52
